PWSweather.com
Personal Weather Stations
Station Observations
JOE4SPEED
Jupiter, Fl, Jupiter, FL 33458

Jupiter, FlJupiter, FL 33458

Lat: 26.9373, Lon: -80.1101

Elevation: 12

Station Type: Davis VP 2

http://www.joe4speed.com/wxindex.php

Latest ConditionsUpdated 6:50:26 PM EST Sunday, Nov 23, 2014
Currently Today's Max Today's Min Today's Average
Temperature 77.3°F25.2°C 82.2°F27.9°C 73.4°F23.0°C 78.0°F25.6°C
Dew Point 72.8°F22.7°C 74.9°F23.8°C 70.0°F21.1°C 72.7°F22.6°C
Winds 3.1 mph S5.0 kmh S 12.7 mph SE20.4 kmh SE - 7.2 mph 11.6 kmh
Wind Gusts 3.0 mph4.8 kmh 21.0 mph33.8 kmh - -
Humidity 86% 92% 77% 84%
Pressure 29.94 in1013.9 mb 30.07 in1018.3 mb 29.91 in1012.9 mb -
Precipitation - 0.68 in17.3 mm - -
Hour Temp Dew Point Humidity Winds Wind Gusts Pressure Precip Precip Rate Daily Precip Total
06:50 PM 77.3°F25.2°C 72.8°F22.7°C 86% 3.1 mph S5.0 kmh S 3.0 mph4.8 kmh 29.94 in1013.9 mb 0.00 in0.0 mm 0.00 in/hr0.0 mm/hr 0.68 in17.3 mm
06:40 PM 77.4°F25.2°C 72.9°F22.7°C 86% 2.7 mph S4.3 kmh S 4.0 mph6.4 kmh 29.94 in1013.9 mb 0.00 in0.0 mm 0.00 in/hr0.0 mm/hr 0.68 in17.3 mm
06:30 PM 77.6°F25.3°C 73.1°F22.8°C 86% 3.2 mph S5.1 kmh S 5.0 mph8.0 kmh 29.94 in1013.9 mb 0.00 in0.0 mm 0.00 in/hr0.0 mm/hr 0.68 in17.3 mm
06:20 PM 77.7°F25.4°C 72.8°F22.7°C 85% 3.5 mph SSE5.6 kmh SSE 6.0 mph9.7 kmh 29.93 in1013.5 mb 0.00 in0.0 mm 0.00 in/hr0.0 mm/hr 0.68 in17.3 mm
06:10 PM 77.9°F25.5°C 73.0°F22.8°C 85% 3.5 mph SSE5.6 kmh SSE 5.0 mph8.0 kmh 29.93 in1013.5 mb 0.00 in0.0 mm 0.00 in/hr0.0 mm/hr 0.68 in17.3 mm
06:00 PM 78.1°F25.6°C 73.2°F22.9°C 85% 3.9 mph S6.3 kmh S 7.0 mph11.3 kmh 29.93 in1013.5 mb 0.00 in0.0 mm 0.00 in/hr0.0 mm/hr 0.68 in17.3 mm
05:50 PM 78.3°F25.7°C 73.4°F23.0°C 85% 4.4 mph S7.1 kmh S 6.0 mph9.7 kmh 29.92 in1013.2 mb 0.00 in0.0 mm 0.00 in/hr0.0 mm/hr 0.68 in17.3 mm
05:40 PM 78.4°F25.8°C 73.5°F23.1°C 85% 5.6 mph SE9.0 kmh SE 8.0 mph12.9 kmh 29.92 in1013.2 mb 0.00 in0.0 mm 0.00 in/hr0.0 mm/hr 0.68 in17.3 mm
05:30 PM 78.5°F25.8°C 73.3°F22.9°C 84% 4.5 mph S7.2 kmh S 10.0 mph16.1 kmh 29.92 in1013.2 mb 0.00 in0.0 mm 0.00 in/hr0.0 mm/hr 0.68 in17.3 mm
05:20 PM 78.8°F26.0°C 73.6°F23.1°C 84% 6.4 mph SSE10.3 kmh SSE 12.0 mph19.3 kmh 29.92 in1013.2 mb 0.00 in0.0 mm 0.00 in/hr0.0 mm/hr 0.68 in17.3 mm
05:10 PM 78.8°F26.0°C 73.6°F23.1°C 84% 5.5 mph SE8.9 kmh SE 13.0 mph20.9 kmh 29.91 in1012.9 mb 0.00 in0.0 mm 0.00 in/hr0.0 mm/hr 0.68 in17.3 mm
05:00 PM 79.0°F26.1°C 73.7°F23.2°C 84% 6.4 mph SE10.3 kmh SE 11.0 mph17.7 kmh 29.92 in1013.2 mb 0.00 in0.0 mm 0.00 in/hr0.0 mm/hr 0.68 in17.3 mm
04:50 PM 79.1°F26.2°C 73.8°F23.2°C 84% 6.1 mph SE9.8 kmh SE 9.0 mph14.5 kmh 29.92 in1013.2 mb 0.00 in0.0 mm 0.00 in/hr0.0 mm/hr 0.68 in17.3 mm
04:40 PM 79.2°F26.2°C 73.6°F23.1°C 83% 5.3 mph SSW8.5 kmh SSW 8.0 mph12.9 kmh 29.92 in1013.2 mb 0.00 in0.0 mm 0.00 in/hr0.0 mm/hr 0.68 in17.3 mm
04:30 PM 79.3°F26.3°C 73.7°F23.2°C 83% 4.5 mph SSE7.2 kmh SSE 6.0 mph9.7 kmh 29.92 in1013.2 mb 0.00 in0.0 mm 0.00 in/hr0.0 mm/hr 0.68 in17.3 mm
04:20 PM 79.6°F26.4°C 74.0°F23.3°C 83% 4.5 mph SE7.2 kmh SE 11.0 mph17.7 kmh 29.92 in1013.2 mb 0.00 in0.0 mm 0.00 in/hr0.0 mm/hr 0.68 in17.3 mm
04:10 PM 79.8°F26.6°C 73.9°F23.3°C 82% 6.5 mph S10.5 kmh S 10.0 mph16.1 kmh 29.92 in1013.2 mb 0.00 in0.0 mm 0.00 in/hr0.0 mm/hr 0.68 in17.3 mm
04:00 PM 80.1°F26.7°C 74.1°F23.4°C 82% 5.9 mph SE9.5 kmh SE 9.0 mph14.5 kmh 29.91 in1012.9 mb 0.00 in0.0 mm 0.00 in/hr0.0 mm/hr 0.68 in17.3 mm
03:50 PM 80.3°F26.8°C 74.3°F23.5°C 82% 6.7 mph SSE10.8 kmh SSE 10.0 mph16.1 kmh 29.91 in1012.9 mb 0.00 in0.0 mm 0.00 in/hr0.0 mm/hr 0.68 in17.3 mm
03:40 PM 80.3°F26.8°C 74.3°F23.5°C 82% 5.8 mph ESE9.3 kmh ESE 11.0 mph17.7 kmh 29.92 in1013.2 mb 0.00 in0.0 mm 0.00 in/hr0.0 mm/hr 0.68 in17.3 mm
03:30 PM 80.5°F26.9°C 74.1°F23.4°C 81% 8.1 mph SE13.0 kmh SE 15.0 mph24.1 kmh 29.92 in1013.2 mb 0.00 in0.0 mm 0.00 in/hr0.0 mm/hr 0.68 in17.3 mm
03:20 PM 80.3°F26.8°C 74.3°F23.5°C 82% 10.1 mph SSE16.3 kmh SSE 16.0 mph25.7 kmh 29.92 in1013.2 mb 0.00 in0.0 mm 0.00 in/hr0.0 mm/hr 0.68 in17.3 mm
03:10 PM 80.3°F26.8°C 74.3°F23.5°C 82% 8.7 mph SE14.0 kmh SE 14.0 mph22.5 kmh 29.92 in1013.2 mb 0.00 in0.0 mm 0.00 in/hr0.0 mm/hr 0.68 in17.3 mm
03:00 PM 80.6°F27.0°C 74.6°F23.7°C 82% 8.9 mph S14.3 kmh S 11.0 mph17.7 kmh 29.92 in1013.2 mb 0.00 in0.0 mm 0.00 in/hr0.0 mm/hr 0.68 in17.3 mm
02:50 PM 80.6°F27.0°C 74.6°F23.7°C 82% 8.9 mph SE14.3 kmh SE 14.0 mph22.5 kmh 29.92 in1013.2 mb 0.00 in0.0 mm 0.00 in/hr0.0 mm/hr 0.68 in17.3 mm
02:40 PM 80.4°F26.9°C 74.4°F23.6°C 82% 7.2 mph S11.6 kmh S 16.0 mph25.7 kmh 29.92 in1013.2 mb 0.00 in0.0 mm 0.00 in/hr0.0 mm/hr 0.68 in17.3 mm
02:30 PM 80.0°F26.7°C 74.3°F23.5°C 83% 8.3 mph SE13.4 kmh SE 15.0 mph24.1 kmh 29.92 in1013.2 mb 0.00 in0.0 mm 0.00 in/hr0.0 mm/hr 0.68 in17.3 mm
02:20 PM 80.0°F26.7°C 74.4°F23.6°C 83% 10.3 mph SE16.6 kmh SE 13.0 mph20.9 kmh 29.93 in1013.5 mb 0.00 in0.0 mm 0.00 in/hr0.0 mm/hr 0.68 in17.3 mm
02:10 PM 79.6°F26.4°C 74.7°F23.7°C 85% 8.8 mph SE14.2 kmh SE 13.0 mph20.9 kmh 29.93 in1013.5 mb 0.00 in0.0 mm 0.00 in/hr0.0 mm/hr 0.68 in17.3 mm
02:00 PM 79.4°F26.3°C 74.4°F23.6°C 85% 5.5 mph S8.9 kmh S 11.0 mph17.7 kmh 29.93 in1013.5 mb 0.00 in0.0 mm 0.00 in/hr0.0 mm/hr 0.68 in17.3 mm
01:50 PM 79.1°F26.2°C 74.2°F23.4°C 85% 6.2 mph SE10.0 kmh SE 13.0 mph20.9 kmh 29.94 in1013.9 mb 0.00 in0.0 mm 0.00 in/hr0.0 mm/hr 0.68 in17.3 mm
01:40 PM 80.4°F26.9°C 74.0°F23.3°C 81% 8.4 mph SE13.5 kmh SE 13.0 mph20.9 kmh 29.95 in1014.2 mb 0.01 in0.3 mm 0.06 in/hr1.5 mm/hr 0.68 in17.3 mm
01:30 PM 80.7°F27.1°C 74.3°F23.5°C 81% 9.3 mph S15.0 kmh S 17.0 mph27.4 kmh 29.95 in1014.2 mb 0.00 in0.0 mm 0.00 in/hr0.0 mm/hr 0.67 in17.0 mm
01:20 PM 80.3°F26.8°C 74.3°F23.5°C 82% 7.1 mph S11.4 kmh S 12.0 mph19.3 kmh 29.96 in1014.6 mb 0.00 in0.0 mm 0.00 in/hr0.0 mm/hr 0.67 in17.0 mm
01:10 PM 80.2°F26.8°C 74.2°F23.4°C 82% 7.1 mph SSE11.4 kmh SSE 12.0 mph19.3 kmh 29.97 in1014.9 mb 0.00 in0.0 mm 0.00 in/hr0.0 mm/hr 0.67 in17.0 mm
01:00 PM 80.4°F26.9°C 74.0°F23.3°C 81% 7.0 mph S11.3 kmh S 12.0 mph19.3 kmh 29.97 in1014.9 mb 0.00 in0.0 mm 0.00 in/hr0.0 mm/hr 0.67 in17.0 mm
12:50 PM 81.0°F27.2°C 73.9°F23.3°C 79% 5.9 mph SE9.5 kmh SE 12.0 mph19.3 kmh 29.98 in1015.2 mb 0.00 in0.0 mm 0.00 in/hr0.0 mm/hr 0.67 in17.0 mm
12:40 PM 81.0°F27.2°C 73.5°F23.1°C 78% 9.1 mph SSW14.6 kmh SSW 13.0 mph20.9 kmh 29.98 in1015.2 mb 0.00 in0.0 mm 0.00 in/hr0.0 mm/hr 0.67 in17.0 mm
12:30 PM 81.8°F27.7°C 73.9°F23.3°C 77% 7.7 mph SW12.4 kmh SW 12.0 mph19.3 kmh 29.99 in1015.6 mb 0.00 in0.0 mm 0.00 in/hr0.0 mm/hr 0.67 in17.0 mm
12:20 PM 81.7°F27.6°C 74.9°F23.8°C 80% 6.7 mph S10.8 kmh S 13.0 mph20.9 kmh 30.00 in1015.9 mb 0.00 in0.0 mm 0.00 in/hr0.0 mm/hr 0.67 in17.0 mm
12:10 PM 81.2°F27.3°C 73.7°F23.2°C 78% 8.1 mph S13.0 kmh S 12.0 mph19.3 kmh 30.00 in1015.9 mb 0.00 in0.0 mm 0.00 in/hr0.0 mm/hr 0.67 in17.0 mm
12:00 PM 81.2°F27.3°C 73.7°F23.2°C 78% 8.8 mph SE14.2 kmh SE 12.0 mph19.3 kmh 30.01 in1016.3 mb 0.00 in0.0 mm 0.00 in/hr0.0 mm/hr 0.67 in17.0 mm
11:50 AM 81.6°F27.6°C 73.7°F23.2°C 77% 7.7 mph SSE12.4 kmh SSE 12.0 mph19.3 kmh 30.01 in1016.3 mb 0.00 in0.0 mm 0.00 in/hr0.0 mm/hr 0.67 in17.0 mm
11:40 AM 81.4°F27.4°C 73.5°F23.1°C 77% 7.3 mph S11.7 kmh S 11.0 mph17.7 kmh 30.02 in1016.6 mb 0.00 in0.0 mm 0.00 in/hr0.0 mm/hr 0.67 in17.0 mm
11:30 AM 82.0°F27.8°C 74.1°F23.4°C 77% 12.1 mph SW19.5 kmh SW 21.0 mph33.8 kmh 30.02 in1016.6 mb 0.00 in0.0 mm 0.00 in/hr0.0 mm/hr 0.67 in17.0 mm
11:20 AM 82.2°F27.9°C 74.6°F23.7°C 78% 9.7 mph S15.6 kmh S 17.0 mph27.4 kmh 30.02 in1016.6 mb 0.00 in0.0 mm 0.00 in/hr0.0 mm/hr 0.67 in17.0 mm
11:10 AM 81.7°F27.6°C 74.2°F23.4°C 78% 9.6 mph SE15.4 kmh SE 12.0 mph19.3 kmh 30.02 in1016.6 mb 0.00 in0.0 mm 0.00 in/hr0.0 mm/hr 0.67 in17.0 mm
11:00 AM 82.1°F27.8°C 74.5°F23.6°C 78% 6.1 mph SE9.8 kmh SE 10.0 mph16.1 kmh 30.03 in1016.9 mb 0.00 in0.0 mm 0.00 in/hr0.0 mm/hr 0.67 in17.0 mm
10:50 AM 81.2°F27.3°C 73.7°F23.2°C 78% 9.1 mph ESE14.6 kmh ESE 13.0 mph20.9 kmh 30.04 in1017.3 mb 0.00 in0.0 mm 0.00 in/hr0.0 mm/hr 0.67 in17.0 mm
10:40 AM 81.4°F27.4°C 73.9°F23.3°C 78% 8.7 mph S14.0 kmh S 13.0 mph20.9 kmh 30.04 in1017.3 mb 0.00 in0.0 mm 0.00 in/hr0.0 mm/hr 0.67 in17.0 mm
10:30 AM 81.7°F27.6°C 73.8°F23.2°C 77% 10.6 mph SE17.1 kmh SE 17.0 mph27.4 kmh 30.04 in1017.3 mb 0.00 in0.0 mm 0.00 in/hr0.0 mm/hr 0.67 in17.0 mm
10:20 AM 80.9°F27.2°C 73.7°F23.2°C 79% 7.8 mph SE12.6 kmh SE 13.0 mph20.9 kmh 30.04 in1017.3 mb 0.00 in0.0 mm 0.00 in/hr0.0 mm/hr 0.67 in17.0 mm
10:10 AM 80.8°F27.1°C 73.7°F23.2°C 79% 8.1 mph SSE13.0 kmh SSE 13.0 mph20.9 kmh 30.04 in1017.3 mb 0.00 in0.0 mm 0.00 in/hr0.0 mm/hr 0.67 in17.0 mm
10:00 AM 80.7°F27.1°C 73.6°F23.1°C 79% 9.6 mph SE15.4 kmh SE 11.0 mph17.7 kmh 30.04 in1017.3 mb 0.00 in0.0 mm 0.00 in/hr0.0 mm/hr 0.67 in17.0 mm
09:50 AM 81.0°F27.2°C 73.5°F23.1°C 78% 10.0 mph S16.1 kmh S 15.0 mph24.1 kmh 30.04 in1017.3 mb 0.00 in0.0 mm 0.00 in/hr0.0 mm/hr 0.67 in17.0 mm
09:40 AM 81.1°F27.3°C 74.0°F23.3°C 79% 4.8 mph SE7.7 kmh SE 9.0 mph14.5 kmh 30.04 in1017.3 mb 0.00 in0.0 mm 0.00 in/hr0.0 mm/hr 0.67 in17.0 mm
09:30 AM 81.0°F27.2°C 73.5°F23.1°C 78% 9.9 mph SE15.9 kmh SE 16.0 mph25.7 kmh 30.04 in1017.3 mb 0.00 in0.0 mm 0.00 in/hr0.0 mm/hr 0.67 in17.0 mm
09:20 AM 80.3°F26.8°C 73.6°F23.1°C 80% 7.6 mph SE12.2 kmh SE 10.0 mph16.1 kmh 30.04 in1017.3 mb 0.00 in0.0 mm 0.00 in/hr0.0 mm/hr 0.67 in17.0 mm
09:10 AM 80.6°F27.0°C 73.5°F23.1°C 79% 7.9 mph SE12.7 kmh SE 16.0 mph25.7 kmh 30.04 in1017.3 mb 0.00 in0.0 mm 0.00 in/hr0.0 mm/hr 0.67 in17.0 mm
09:00 AM 80.2°F26.8°C 73.5°F23.1°C 80% 10.2 mph SSE16.4 kmh SSE 15.0 mph24.1 kmh 30.03 in1016.9 mb 0.00 in0.0 mm 0.00 in/hr0.0 mm/hr 0.67 in17.0 mm
08:50 AM 79.1°F26.2°C 72.8°F22.7°C 81% 8.2 mph SE13.2 kmh SE 13.0 mph20.9 kmh 30.03 in1016.9 mb 0.00 in0.0 mm 0.00 in/hr0.0 mm/hr 0.67 in17.0 mm
08:40 AM 79.7°F26.5°C 73.3°F22.9°C 81% 5.4 mph SE8.7 kmh SE 9.0 mph14.5 kmh 30.03 in1016.9 mb 0.00 in0.0 mm 0.00 in/hr0.0 mm/hr 0.67 in17.0 mm
08:30 AM 79.0°F26.1°C 73.0°F22.8°C 82% 8.7 mph SE14.0 kmh SE 16.0 mph25.7 kmh 30.02 in1016.6 mb 0.00 in0.0 mm 0.00 in/hr0.0 mm/hr 0.67 in17.0 mm
08:20 AM 78.9°F26.1°C 73.0°F22.8°C 82% 9.1 mph S14.6 kmh S 11.0 mph17.7 kmh 30.02 in1016.6 mb 0.00 in0.0 mm 0.00 in/hr0.0 mm/hr 0.67 in17.0 mm
08:10 AM 78.6°F25.9°C 73.1°F22.8°C 83% 7.5 mph SSE12.1 kmh SSE 12.0 mph19.3 kmh 30.02 in1016.6 mb 0.00 in0.0 mm 0.00 in/hr0.0 mm/hr 0.67 in17.0 mm
08:00 AM 78.0°F25.6°C 72.4°F22.4°C 83% 5.6 mph SSE9.0 kmh SSE 8.0 mph12.9 kmh 30.02 in1016.6 mb 0.00 in0.0 mm 0.00 in/hr0.0 mm/hr 0.67 in17.0 mm
07:50 AM 77.2°F25.1°C 72.0°F22.2°C 84% 8.2 mph SE13.2 kmh SE 15.0 mph24.1 kmh 30.02 in1016.6 mb 0.00 in0.0 mm 0.00 in/hr0.0 mm/hr 0.67 in17.0 mm
07:40 AM 77.1°F25.1°C 71.9°F22.2°C 84% 5.9 mph S9.5 kmh S 10.0 mph16.1 kmh 30.03 in1016.9 mb 0.00 in0.0 mm 0.00 in/hr0.0 mm/hr 0.67 in17.0 mm
07:30 AM 77.0°F25.0°C 71.8°F22.1°C 84% 5.5 mph S8.9 kmh S 11.0 mph17.7 kmh 30.02 in1016.6 mb 0.00 in0.0 mm 0.00 in/hr0.0 mm/hr 0.67 in17.0 mm
07:20 AM 76.8°F24.9°C 71.9°F22.2°C 85% 6.0 mph SE9.7 kmh SE 12.0 mph19.3 kmh 30.02 in1016.6 mb 0.00 in0.0 mm 0.00 in/hr0.0 mm/hr 0.67 in17.0 mm
07:10 AM 76.5°F24.7°C 71.7°F22.1°C 85% 6.8 mph SE10.9 kmh SE 12.0 mph19.3 kmh 30.02 in1016.6 mb 0.00 in0.0 mm 0.00 in/hr0.0 mm/hr 0.67 in17.0 mm
07:00 AM 76.5°F24.7°C 71.7°F22.1°C 85% 5.4 mph S8.7 kmh S 9.0 mph14.5 kmh 30.02 in1016.6 mb 0.00 in0.0 mm 0.00 in/hr0.0 mm/hr 0.67 in17.0 mm
06:50 AM 76.5°F24.7°C 71.7°F22.1°C 85% 5.5 mph SSE8.9 kmh SSE 7.0 mph11.3 kmh 30.02 in1016.6 mb 0.00 in0.0 mm 0.00 in/hr0.0 mm/hr 0.67 in17.0 mm
06:40 AM 76.4°F24.7°C 71.2°F21.8°C 84% 5.0 mph SE8.0 kmh SE 10.0 mph16.1 kmh 30.01 in1016.3 mb 0.00 in0.0 mm 0.00 in/hr0.0 mm/hr 0.67 in17.0 mm
06:30 AM 76.5°F24.7°C 71.7°F22.1°C 85% 5.8 mph SE9.3 kmh SE 12.0 mph19.3 kmh 30.02 in1016.6 mb 0.00 in0.0 mm 0.00 in/hr0.0 mm/hr 0.67 in17.0 mm
06:20 AM 76.4°F24.7°C 71.5°F21.9°C 85% 7.7 mph SE12.4 kmh SE 10.0 mph16.1 kmh 30.02 in1016.6 mb 0.00 in0.0 mm 0.00 in/hr0.0 mm/hr 0.67 in17.0 mm
06:10 AM 76.2°F24.6°C 71.4°F21.9°C 85% 5.3 mph SSE8.5 kmh SSE 12.0 mph19.3 kmh 30.02 in1016.6 mb 0.00 in0.0 mm 0.00 in/hr0.0 mm/hr 0.67 in17.0 mm
06:00 AM 76.2°F24.6°C 71.4°F21.9°C 85% 5.4 mph SSE8.7 kmh SSE 11.0 mph17.7 kmh 30.01 in1016.3 mb 0.00 in0.0 mm 0.00 in/hr0.0 mm/hr 0.67 in17.0 mm
05:50 AM 76.2°F24.6°C 71.4°F21.9°C 85% 6.6 mph SSE10.6 kmh SSE 11.0 mph17.7 kmh 30.01 in1016.3 mb 0.00 in0.0 mm 0.00 in/hr0.0 mm/hr 0.67 in17.0 mm
05:40 AM 76.3°F24.6°C 71.5°F21.9°C 85% 6.0 mph ESE9.7 kmh ESE 11.0 mph17.7 kmh 30.01 in1016.3 mb 0.00 in0.0 mm 0.00 in/hr0.0 mm/hr 0.67 in17.0 mm
05:30 AM 76.1°F24.5°C 71.3°F21.8°C 85% 7.9 mph SSE12.7 kmh SSE 14.0 mph22.5 kmh 30.01 in1016.3 mb 0.00 in0.0 mm 0.00 in/hr0.0 mm/hr 0.67 in17.0 mm
05:20 AM 75.9°F24.4°C 71.1°F21.7°C 85% 6.2 mph SE10.0 kmh SE 10.0 mph16.1 kmh 30.01 in1016.3 mb 0.00 in0.0 mm 0.00 in/hr0.0 mm/hr 0.67 in17.0 mm
05:10 AM 75.9°F24.4°C 71.1°F21.7°C 85% 5.2 mph SE8.4 kmh SE 7.0 mph11.3 kmh 30.01 in1016.3 mb 0.00 in0.0 mm 0.00 in/hr0.0 mm/hr 0.67 in17.0 mm
05:00 AM 75.7°F24.3°C 71.2°F21.8°C 86% 7.2 mph SE11.6 kmh SE 11.0 mph17.7 kmh 30.01 in1016.3 mb 0.00 in0.0 mm 0.00 in/hr0.0 mm/hr 0.67 in17.0 mm
04:50 AM 75.7°F24.3°C 71.2°F21.8°C 86% 6.0 mph SE9.7 kmh SE 11.0 mph17.7 kmh 30.01 in1016.3 mb 0.00 in0.0 mm 0.00 in/hr0.0 mm/hr 0.67 in17.0 mm
04:40 AM 75.6°F24.2°C 71.4°F21.9°C 87% 6.7 mph SSE10.8 kmh SSE 12.0 mph19.3 kmh 30.01 in1016.3 mb 0.00 in0.0 mm 0.00 in/hr0.0 mm/hr 0.67 in17.0 mm
04:30 AM 75.4°F24.1°C 71.6°F22.0°C 88% 5.7 mph SE9.2 kmh SE 11.0 mph17.7 kmh 30.01 in1016.3 mb 0.00 in0.0 mm 0.00 in/hr0.0 mm/hr 0.67 in17.0 mm
04:20 AM 75.0°F23.9°C 71.6°F22.0°C 89% 7.2 mph SE11.6 kmh SE 9.0 mph14.5 kmh 30.01 in1016.3 mb 0.00 in0.0 mm 0.00 in/hr0.0 mm/hr 0.67 in17.0 mm
04:10 AM 74.9°F23.8°C 71.4°F21.9°C 89% 7.4 mph SE11.9 kmh SE 11.0 mph17.7 kmh 30.02 in1016.6 mb 0.00 in0.0 mm 0.00 in/hr0.0 mm/hr 0.67 in17.0 mm
04:00 AM 74.9°F23.8°C 71.8°F22.1°C 90% 4.9 mph SE7.9 kmh SE 9.0 mph14.5 kmh 30.02 in1016.6 mb 0.00 in0.0 mm 0.00 in/hr0.0 mm/hr 0.67 in17.0 mm
03:50 AM 74.8°F23.8°C 72.0°F22.2°C 91% 7.1 mph SE11.4 kmh SE 13.0 mph20.9 kmh 30.02 in1016.6 mb 0.00 in0.0 mm 0.00 in/hr0.0 mm/hr 0.67 in17.0 mm
03:40 AM 74.6°F23.7°C 71.8°F22.1°C 91% 6.3 mph SE10.1 kmh SE 10.0 mph16.1 kmh 30.02 in1016.6 mb 0.00 in0.0 mm 0.00 in/hr0.0 mm/hr 0.67 in17.0 mm
03:30 AM 74.4°F23.6°C 71.6°F22.0°C 91% 7.8 mph SSE12.6 kmh SSE 13.0 mph20.9 kmh 30.02 in1016.6 mb 0.00 in0.0 mm 0.00 in/hr0.0 mm/hr 0.67 in17.0 mm
03:20 AM 74.2°F23.4°C 71.4°F21.9°C 91% 9.2 mph SE14.8 kmh SE 16.0 mph25.7 kmh 30.02 in1016.6 mb 0.00 in0.0 mm 0.00 in/hr0.0 mm/hr 0.67 in17.0 mm
03:10 AM 74.1°F23.4°C 71.3°F21.8°C 91% 10.9 mph SE17.5 kmh SE 15.0 mph24.1 kmh 30.02 in1016.6 mb 0.00 in0.0 mm 0.00 in/hr0.0 mm/hr 0.67 in17.0 mm
03:00 AM 74.3°F23.5°C 71.8°F22.1°C 92% 7.4 mph E11.9 kmh E 11.0 mph17.7 kmh 30.03 in1016.9 mb 0.00 in0.0 mm 0.00 in/hr0.0 mm/hr 0.67 in17.0 mm
02:50 AM 74.1°F23.4°C 71.7°F22.1°C 92% 7.1 mph SSE11.4 kmh SSE 11.0 mph17.7 kmh 30.03 in1016.9 mb 0.04 in1.0 mm 0.24 in/hr6.1 mm/hr 0.67 in17.0 mm
02:40 AM 74.1°F23.4°C 71.6°F22.0°C 92% 4.6 mph ESE7.4 kmh ESE 10.0 mph16.1 kmh 30.04 in1017.3 mb 0.00 in0.0 mm 0.00 in/hr0.0 mm/hr 0.63 in16.0 mm
02:30 AM 74.3°F23.5°C 71.8°F22.1°C 92% 6.9 mph ESE11.1 kmh ESE 11.0 mph17.7 kmh 30.04 in1017.3 mb 0.00 in0.0 mm 0.00 in/hr0.0 mm/hr 0.63 in16.0 mm
02:20 AM 74.3°F23.5°C 71.8°F22.1°C 92% 10.4 mph E16.7 kmh E 15.0 mph24.1 kmh 30.04 in1017.3 mb 0.00 in0.0 mm 0.00 in/hr0.0 mm/hr 0.63 in16.0 mm
02:10 AM 74.0°F23.3°C 71.2°F21.8°C 91% 8.2 mph SE13.2 kmh SE 12.0 mph19.3 kmh 30.04 in1017.3 mb 0.00 in0.0 mm 0.00 in/hr0.0 mm/hr 0.63 in16.0 mm
02:00 AM 73.7°F23.2°C 70.9°F21.6°C 91% 5.9 mph SSE9.5 kmh SSE 9.0 mph14.5 kmh 30.04 in1017.3 mb 0.13 in3.3 mm 0.16 in/hr4.1 mm/hr 0.63 in16.0 mm
01:50 AM 73.5°F23.1°C 70.7°F21.5°C 91% 5.5 mph SE8.9 kmh SE 8.0 mph12.9 kmh 30.05 in1017.6 mb 0.18 in4.6 mm 1.08 in/hr27.4 mm/hr 0.55 in14.0 mm
01:40 AM 73.6°F23.1°C 70.8°F21.6°C 91% 9.2 mph SE14.8 kmh SE 16.0 mph25.7 kmh 30.05 in1017.6 mb 0.06 in1.5 mm 0.36 in/hr9.1 mm/hr 0.45 in11.4 mm
01:30 AM 73.6°F23.1°C 70.8°F21.6°C 91% 7.3 mph SE11.7 kmh SE 12.0 mph19.3 kmh 30.05 in1017.6 mb 0.00 in0.0 mm 0.00 in/hr0.0 mm/hr 0.33 in8.4 mm
01:20 AM 73.4°F23.0°C 70.3°F21.3°C 90% 10.7 mph SE17.2 kmh SE 18.0 mph29.0 kmh 30.04 in1017.3 mb 0.10 in2.5 mm 0.60 in/hr15.2 mm/hr 0.33 in8.4 mm
01:10 AM 73.5°F23.1°C 70.4°F21.3°C 90% 6.4 mph SE10.3 kmh SE 14.0 mph22.5 kmh 30.05 in1017.6 mb 0.04 in1.0 mm 0.24 in/hr6.1 mm/hr 0.24 in6.1 mm
01:00 AM 73.5°F23.1°C 70.4°F21.3°C 90% 12.7 mph SE20.4 kmh SE 17.0 mph27.4 kmh 30.05 in1017.6 mb 0.04 in1.0 mm 0.05 in/hr1.3 mm/hr 0.20 in5.1 mm
12:50 AM 73.7°F23.2°C 70.3°F21.3°C 89% 10.7 mph E17.2 kmh E 16.0 mph25.7 kmh 30.05 in1017.6 mb 0.02 in0.5 mm 0.12 in/hr3.0 mm/hr 0.17 in4.3 mm
12:40 AM 73.7°F23.2°C 70.3°F21.3°C 89% 8.5 mph SE13.7 kmh SE 14.0 mph22.5 kmh 30.06 in1017.9 mb 0.03 in0.8 mm 0.18 in/hr4.6 mm/hr 0.15 in3.8 mm
12:30 AM 73.9°F23.3°C 70.1°F21.2°C 88% 8.4 mph ESE13.5 kmh ESE 13.0 mph20.9 kmh 30.07 in1018.3 mb 0.07 in1.8 mm 0.42 in/hr10.7 mm/hr 0.13 in3.3 mm
12:20 AM 74.8°F23.8°C 70.0°F21.1°C 85% 9.2 mph E14.8 kmh E 13.0 mph20.9 kmh 30.07 in1018.3 mb 0.08 in2.0 mm 0.48 in/hr12.2 mm/hr 0.08 in2.0 mm
12:10 AM 75.6°F24.2°C 70.1°F21.2°C 83% 11.3 mph SSE18.2 kmh SSE 21.0 mph33.8 kmh 30.07 in1018.3 mb 0.00 in0.0 mm 0.00 in/hr0.0 mm/hr 0.00 in0.0 mm
12:00 AM 75.6°F24.2°C 70.1°F21.2°C 83% 9.5 mph SE15.3 kmh SE 14.0 mph22.5 kmh 30.07 in1018.3 mb 0.00 in0.0 mm 0.00 in/hr0.0 mm/hr 0.00 in0.0 mm